createdAt,value
2018-02-16T00:00:02.893Z,1009.75
2018-02-16T00:00:43.343Z,1009.8
2018-02-16T00:01:23.649Z,1009.78
2018-02-16T00:02:04.092Z,1009.78
2018-02-16T00:02:44.462Z,1009.83
2018-02-16T00:03:24.947Z,1009.83
2018-02-16T00:04:05.330Z,1009.82
2018-02-16T00:04:45.761Z,1009.81
2018-02-16T00:05:26.148Z,1009.86
2018-02-16T00:06:06.530Z,1009.8
2018-02-16T00:06:46.921Z,1009.84
2018-02-16T00:07:27.320Z,1009.86
2018-02-16T00:08:07.754Z,1009.83
2018-02-16T00:08:48.081Z,1009.86
2018-02-16T00:09:28.473Z,1009.81
2018-02-16T00:10:08.877Z,1009.82
2018-02-16T00:10:49.323Z,1009.81
2018-02-16T00:11:29.736Z,1009.83
2018-02-16T00:12:10.052Z,1009.84
2018-02-16T00:12:50.444Z,1009.84
2018-02-16T00:13:30.879Z,1009.81
2018-02-16T00:14:11.360Z,1009.84
2018-02-16T00:14:51.709Z,1009.87
2018-02-16T00:15:32.146Z,1009.84
2018-02-16T00:16:12.515Z,1009.86
2018-02-16T00:16:53.018Z,1009.85
2018-02-16T00:17:33.432Z,1009.84
2018-02-16T00:18:13.897Z,1009.86
2018-02-16T00:18:54.387Z,1009.88
2018-02-16T00:19:34.828Z,1009.86
2018-02-16T00:20:15.172Z,1009.86
2018-02-16T00:20:55.639Z,1009.92
2018-02-16T00:21:35.978Z,1009.91
2018-02-16T00:22:16.374Z,1009.91
2018-02-16T00:22:56.709Z,1009.95
2018-02-16T00:23:37.159Z,1009.92
2018-02-16T00:24:17.574Z,1009.97
2018-02-16T00:24:57.945Z,1009.99
2018-02-16T00:25:38.350Z,1009.97
2018-02-16T00:26:18.713Z,1009.98
2018-02-16T00:26:59.088Z,1009.95
2018-02-16T00:27:39.585Z,1010.01
2018-02-16T00:28:19.976Z,1010.03
2018-02-16T00:29:00.404Z,1009.96
2018-02-16T00:29:40.743Z,1009.96
2018-02-16T00:30:21.168Z,1009.98
2018-02-16T00:31:01.498Z,1009.99
2018-02-16T00:31:41.972Z,1009.98
2018-02-16T00:32:22.338Z,1009.99
2018-02-16T00:33:02.893Z,1010.01
2018-02-16T00:33:43.219Z,1010.03
2018-02-16T00:34:23.685Z,1010.05
2018-02-16T00:35:04.030Z,1010.02
2018-02-16T00:35:44.595Z,1010.05
2018-02-16T00:36:24.916Z,1010.08
2018-02-16T00:37:05.402Z,1010.12
2018-02-16T00:37:45.790Z,1010.1
2018-02-16T00:38:26.194Z,1010.09
2018-02-16T00:39:06.631Z,1010.11
2018-02-16T00:39:46.983Z,1010.12
2018-02-16T00:40:27.400Z,1010.1
2018-02-16T00:41:07.748Z,1010.13
2018-02-16T00:41:48.104Z,1010.17
2018-02-16T00:42:28.555Z,1010.2
2018-02-16T00:43:09.009Z,1010.22
2018-02-16T00:43:49.350Z,1010.24
2018-02-16T00:44:29.713Z,1010.28
2018-02-16T00:45:10.149Z,1010.28
2018-02-16T00:45:50.550Z,1010.27
2018-02-16T00:46:30.957Z,1010.29
2018-02-16T00:47:11.306Z,1010.28
2018-02-16T00:47:51.717Z,1010.3
2018-02-16T00:48:32.097Z,1010.31
2018-02-16T00:49:12.484Z,1010.31
2018-02-16T00:49:52.889Z,1010.35
2018-02-16T00:50:33.205Z,1010.37
2018-02-16T00:51:13.650Z,1010.38
2018-02-16T00:51:54.039Z,1010.37
2018-02-16T00:52:34.418Z,1010.43
2018-02-16T00:53:14.870Z,1010.41
2018-02-16T00:53:55.196Z,1010.46
2018-02-16T00:54:35.663Z,1010.47
2018-02-16T00:55:16.013Z,1010.45
2018-02-16T00:55:56.415Z,1010.46
2018-02-16T00:56:36.840Z,1010.48
2018-02-16T00:57:17.207Z,1010.5
2018-02-16T00:57:57.625Z,1010.5
2018-02-16T00:58:38.045Z,1010.49
2018-02-16T00:59:18.419Z,1010.51
2018-02-16T00:59:58.794Z,1010.53
2018-02-16T01:00:39.196Z,1010.47
2018-02-16T01:01:19.559Z,1010.49
2018-02-16T01:01:59.974Z,1010.49
2018-02-16T01:02:40.357Z,1010.54
2018-02-16T01:03:20.788Z,1010.54
2018-02-16T01:04:01.192Z,1010.53
2018-02-16T01:04:41.612Z,1010.54
2018-02-16T01:05:21.932Z,1010.58
2018-02-16T01:06:02.402Z,1010.59
2018-02-16T01:06:42.815Z,1010.56
2018-02-16T01:07:23.163Z,1010.62
2018-02-16T01:08:03.569Z,1010.65
2018-02-16T01:08:43.944Z,1010.64
2018-02-16T01:09:24.339Z,1010.65
2018-02-16T01:10:04.719Z,1010.69
2018-02-16T01:10:45.083Z,1010.66
2018-02-16T01:11:25.531Z,1010.68
2018-02-16T01:12:05.941Z,1010.68
2018-02-16T01:12:46.304Z,1010.69
2018-02-16T01:13:26.708Z,1010.68
2018-02-16T01:14:07.146Z,1010.71
2018-02-16T01:14:47.534Z,1010.72
2018-02-16T01:15:27.925Z,1010.76
2018-02-16T01:16:08.342Z,1010.73
2018-02-16T01:16:48.727Z,1010.75
2018-02-16T01:17:29.023Z,1010.76
2018-02-16T01:18:09.449Z,1010.76
2018-02-16T01:18:49.871Z,1010.78
2018-02-16T01:19:30.267Z,1010.76
2018-02-16T01:20:10.723Z,1010.73
2018-02-16T01:20:51.079Z,1010.72
2018-02-16T01:21:31.500Z,1010.78
2018-02-16T01:22:11.817Z,1010.75
2018-02-16T01:22:52.310Z,1010.73
2018-02-16T01:23:32.642Z,1010.79
2018-02-16T01:24:13.091Z,1010.74
2018-02-16T01:24:53.491Z,1010.74
2018-02-16T01:25:33.905Z,1010.77
2018-02-16T01:26:14.317Z,1010.76
2018-02-16T01:26:54.716Z,1010.77
2018-02-16T01:27:35.045Z,1010.76
2018-02-16T01:28:15.434Z,1010.73
2018-02-16T01:28:55.833Z,1010.74
2018-02-16T01:29:36.238Z,1010.74
2018-02-16T01:30:16.652Z,1010.68
2018-02-16T01:30:57.071Z,1010.72
2018-02-16T01:31:37.414Z,1010.69
2018-02-16T01:32:17.802Z,1010.67
2018-02-16T01:32:58.199Z,1010.72
2018-02-16T01:33:38.673Z,1010.72
2018-02-16T01:34:19.030Z,1010.69
2018-02-16T01:34:59.441Z,1010.75
2018-02-16T01:35:39.804Z,1010.77
2018-02-16T01:36:20.218Z,1010.77
2018-02-16T01:37:00.650Z,1010.81
2018-02-16T01:37:41.062Z,1010.8
2018-02-16T01:38:21.385Z,1010.8
2018-02-16T01:39:01.835Z,1010.84
2018-02-16T01:39:42.229Z,1010.82
2018-02-16T01:40:22.591Z,1010.81
2018-02-16T01:41:03.118Z,1010.8
2018-02-16T01:41:43.354Z,1010.81
2018-02-16T01:42:23.828Z,1010.79
2018-02-16T01:43:04.241Z,1010.79
2018-02-16T01:43:44.556Z,1010.81
2018-02-16T01:44:24.993Z,1010.86
2018-02-16T01:45:05.404Z,1010.87
2018-02-16T01:45:45.740Z,1010.84
2018-02-16T01:46:26.151Z,1010.88
2018-02-16T01:47:06.519Z,1010.86
2018-02-16T01:47:46.919Z,1010.89
2018-02-16T01:48:27.328Z,1010.91
2018-02-16T01:49:07.673Z,1010.93
2018-02-16T01:49:48.073Z,1010.91
2018-02-16T01:50:28.508Z,1010.96
2018-02-16T01:51:08.909Z,1010.96
2018-02-16T01:51:49.284Z,1010.93
2018-02-16T01:52:29.703Z,1010.98
2018-02-16T01:53:10.061Z,1010.95
2018-02-16T01:53:50.462Z,1010.96
2018-02-16T01:54:30.868Z,1010.99
2018-02-16T01:55:11.188Z,1011.02
2018-02-16T01:55:51.604Z,1011
2018-02-16T01:56:32.049Z,1011.04
2018-02-16T01:57:12.498Z,1011.04
2018-02-16T01:57:53.001Z,1011.01
2018-02-16T01:58:33.363Z,1011.07
2018-02-16T01:59:13.768Z,1011.06
2018-02-16T01:59:54.227Z,1011.07
2018-02-16T02:00:34.526Z,1011.12
2018-02-16T02:01:14.977Z,1011.13
2018-02-16T02:01:55.368Z,1011.11
2018-02-16T02:02:35.838Z,1011.12
2018-02-16T02:03:16.171Z,1011.14
2018-02-16T02:03:56.651Z,1011.16
2018-02-16T02:04:37.108Z,1011.2
2018-02-16T02:05:17.455Z,1011.18
2018-02-16T02:05:57.912Z,1011.17
2018-02-16T02:06:38.308Z,1011.19
2018-02-16T02:07:18.664Z,1011.22
2018-02-16T02:07:59.098Z,1011.21
2018-02-16T02:08:39.476Z,1011.24
2018-02-16T02:09:19.886Z,1011.23
2018-02-16T02:10:00.245Z,1011.27
2018-02-16T02:10:40.658Z,1011.25
2018-02-16T02:11:21.100Z,1011.25
2018-02-16T02:12:01.489Z,1011.26
2018-02-16T02:12:41.896Z,1011.29
2018-02-16T02:13:22.250Z,1011.25
2018-02-16T02:14:02.732Z,1011.3
2018-02-16T02:14:43.091Z,1011.31
2018-02-16T02:15:23.457Z,1011.26
2018-02-16T02:16:03.930Z,1011.31
2018-02-16T02:16:44.274Z,1011.31
2018-02-16T02:17:24.660Z,1011.3
2018-02-16T02:18:05.122Z,1011.33
2018-02-16T02:18:45.659Z,1011.28
2018-02-16T02:19:26.160Z,1011.28
2018-02-16T02:20:06.480Z,1011.29
2018-02-16T02:20:46.932Z,1011.29
2018-02-16T02:21:27.280Z,1011.29
2018-02-16T02:22:07.686Z,1011.3
2018-02-16T02:22:48.147Z,1011.31
2018-02-16T02:23:28.554Z,1011.33
2018-02-16T02:24:08.965Z,1011.36
2018-02-16T02:24:49.377Z,1011.36
2018-02-16T02:25:29.739Z,1011.39
2018-02-16T02:26:10.134Z,1011.38
2018-02-16T02:26:50.497Z,1011.36
2018-02-16T02:27:30.940Z,1011.39
2018-02-16T02:28:11.371Z,1011.41
2018-02-16T02:28:51.736Z,1011.41
2018-02-16T02:29:32.087Z,1011.4
2018-02-16T02:30:12.525Z,1011.42
2018-02-16T02:30:52.993Z,1011.41
2018-02-16T02:31:33.386Z,1011.38
2018-02-16T02:32:13.748Z,1011.43
2018-02-16T02:32:54.072Z,1011.38
2018-02-16T02:33:34.544Z,1011.36
2018-02-16T02:34:14.951Z,1011.41
2018-02-16T02:34:55.307Z,1011.39
2018-02-16T02:35:35.791Z,1011.37
2018-02-16T02:36:16.054Z,1011.35
2018-02-16T02:36:56.534Z,1011.35
2018-02-16T02:37:36.898Z,1011.39
2018-02-16T02:38:17.841Z,1011.37
2018-02-16T02:38:57.699Z,1011.46
2018-02-16T02:39:38.075Z,1011.46
2018-02-16T02:40:18.468Z,1011.52
2018-02-16T02:40:58.843Z,1011.53
2018-02-16T02:41:39.230Z,1011.53
2018-02-16T02:42:19.644Z,1011.52
2018-02-16T02:43:00.044Z,1011.56
2018-02-16T02:43:40.462Z,1011.55
2018-02-16T02:44:20.870Z,1011.58
2018-02-16T02:45:01.207Z,1011.58
2018-02-16T02:45:41.578Z,1011.58
2018-02-16T02:46:22.013Z,1011.59
2018-02-16T02:47:02.359Z,1011.6
2018-02-16T02:47:42.759Z,1011.59
2018-02-16T02:48:23.290Z,1011.58
2018-02-16T02:49:03.581Z,1011.65
2018-02-16T02:49:43.992Z,1011.62
2018-02-16T02:50:24.348Z,1011.66
2018-02-16T02:51:04.764Z,1011.67
2018-02-16T02:51:45.195Z,1011.66
2018-02-16T02:52:25.539Z,1011.66
2018-02-16T02:53:05.949Z,1011.68
2018-02-16T02:53:46.378Z,1011.65
2018-02-16T02:54:26.805Z,1011.7
2018-02-16T02:55:07.135Z,1011.68
2018-02-16T02:55:47.649Z,1011.69
2018-02-16T02:56:28.086Z,1011.66
2018-02-16T02:57:08.489Z,1011.66
2018-02-16T02:57:48.867Z,1011.71
2018-02-16T02:58:29.232Z,1011.69
2018-02-16T02:59:09.633Z,1011.68
2018-02-16T02:59:50.020Z,1011.74
2018-02-16T03:00:30.388Z,1011.68
2018-02-16T03:01:10.783Z,1011.73
2018-02-16T03:01:51.219Z,1011.7
2018-02-16T03:02:31.629Z,1011.77
2018-02-16T03:03:11.977Z,1011.77
2018-02-16T03:03:52.383Z,1011.75
2018-02-16T03:04:32.796Z,1011.74
2018-02-16T03:05:13.191Z,1011.79
2018-02-16T03:05:53.575Z,1011.74
2018-02-16T03:06:33.974Z,1011.82
2018-02-16T03:07:14.481Z,1011.81
2018-02-16T03:07:54.830Z,1011.82
2018-02-16T03:08:35.264Z,1011.83
2018-02-16T03:09:15.617Z,1011.87
2018-02-16T03:09:56.093Z,1011.87
2018-02-16T03:10:37.337Z,1011.83
2018-02-16T03:11:16.940Z,1011.86
2018-02-16T03:11:57.347Z,1011.86
2018-02-16T03:12:37.700Z,1011.88
2018-02-16T03:13:18.175Z,1011.91
2018-02-16T03:13:58.558Z,1011.92
2018-02-16T03:14:38.971Z,1011.97
2018-02-16T03:15:19.327Z,1011.94
2018-02-16T03:15:59.764Z,1012
2018-02-16T03:16:40.072Z,1011.99
2018-02-16T03:17:20.525Z,1012.02
2018-02-16T03:18:00.923Z,1012.04
2018-02-16T03:18:41.317Z,1012
2018-02-16T03:19:21.661Z,1012.02
2018-02-16T03:20:02.088Z,1012.01
2018-02-16T03:20:42.498Z,1012.03
2018-02-16T03:21:22.876Z,1012.04
2018-02-16T03:22:03.294Z,1012.1
2018-02-16T03:22:43.672Z,1012.05
2018-02-16T03:23:24.125Z,1012.12
2018-02-16T03:24:04.475Z,1012.1
2018-02-16T03:24:44.846Z,1012.07
2018-02-16T03:25:25.288Z,1012.06
2018-02-16T03:26:05.680Z,1012.11
2018-02-16T03:26:46.071Z,1012.09
2018-02-16T03:27:26.484Z,1012.06
2018-02-16T03:28:06.826Z,1012.1
2018-02-16T03:28:47.271Z,1012.05
2018-02-16T03:29:27.720Z,1012.1
2018-02-16T03:30:08.122Z,1012.09
2018-02-16T03:30:48.603Z,1012.07
2018-02-16T03:31:28.981Z,1012.06
2018-02-16T03:32:09.354Z,1012.09
2018-02-16T03:32:49.773Z,1012.08
2018-02-16T03:33:30.153Z,1012.07
2018-02-16T03:34:10.551Z,1012.06
2018-02-16T03:34:51.070Z,1012.11
2018-02-16T03:35:31.377Z,1012.14
2018-02-16T03:36:11.810Z,1012.13
2018-02-16T03:36:52.235Z,1012.14
2018-02-16T03:37:32.712Z,1012.12
2018-02-16T03:38:13.125Z,1012.11
2018-02-16T03:38:53.494Z,1012.12
2018-02-16T03:39:33.987Z,1012.11
2018-02-16T03:40:14.358Z,1012.23
2018-02-16T03:40:54.672Z,1012.22
2018-02-16T03:41:35.105Z,1012.25
2018-02-16T03:42:15.507Z,1012.23
2018-02-16T03:42:55.909Z,1012.26
2018-02-16T03:43:36.290Z,1012.26
2018-02-16T03:44:16.741Z,1012.31
2018-02-16T03:44:57.088Z,1012.3
2018-02-16T03:45:37.514Z,1012.29
2018-02-16T03:46:17.847Z,1012.32
2018-02-16T03:46:58.262Z,1012.3
2018-02-16T03:47:38.617Z,1012.32
2018-02-16T03:48:18.983Z,1012.32
2018-02-16T03:48:59.464Z,1012.3
2018-02-16T03:49:39.814Z,1012.31
2018-02-16T03:50:20.307Z,1012.32
2018-02-16T03:51:00.584Z,1012.33
2018-02-16T03:51:40.997Z,1012.36
2018-02-16T03:52:21.401Z,1012.35
2018-02-16T03:53:01.805Z,1012.36
2018-02-16T03:53:42.243Z,1012.39
2018-02-16T03:54:22.604Z,1012.39
2018-02-16T03:55:02.946Z,1012.4
2018-02-16T03:55:43.311Z,1012.39
2018-02-16T03:56:23.738Z,1012.43
2018-02-16T03:57:04.162Z,1012.43
2018-02-16T03:57:44.592Z,1012.43
2018-02-16T03:58:24.962Z,1012.46
2018-02-16T03:59:05.342Z,1012.43
2018-02-16T03:59:45.787Z,1012.47
2018-02-16T04:00:26.144Z,1012.5
2018-02-16T04:01:07.345Z,1012.46
2018-02-16T04:01:47.103Z,1012.5
2018-02-16T04:02:27.453Z,1012.44
2018-02-16T04:03:07.918Z,1012.42
2018-02-16T04:03:48.226Z,1012.47
2018-02-16T04:44:01.646Z,1012.73
2018-02-16T04:44:54.353Z,1012.75
2018-02-16T04:45:45.819Z,1012.7
2018-02-16T04:48:32.335Z,1012.8
2018-02-16T04:49:23.828Z,1012.83
2018-02-16T04:51:32.957Z,1012.86
2018-02-16T04:52:24.169Z,1012.87
2018-02-16T04:53:10.697Z,1012.89
2018-02-16T04:53:51.109Z,1012.94
2018-02-16T04:54:31.568Z,1012.93
2018-02-16T04:55:12.005Z,1012.96
2018-02-16T04:55:52.553Z,1012.92
2018-02-16T04:56:33.116Z,1012.95
2018-02-16T04:57:13.567Z,1012.96
2018-02-16T04:57:53.967Z,1012.97
2018-02-16T04:58:34.333Z,1012.96
2018-02-16T04:59:14.719Z,1013.02
2018-02-16T04:59:55.039Z,1013.01
2018-02-16T05:00:35.414Z,1013.04
2018-02-16T05:01:15.932Z,1013.06
2018-02-16T05:01:56.296Z,1013.08
2018-02-16T05:02:36.645Z,1013.1
2018-02-16T05:03:17.050Z,1013.13
2018-02-16T05:03:57.418Z,1013.16
2018-02-16T05:04:37.794Z,1013.19
2018-02-16T05:05:18.237Z,1013.16
2018-02-16T05:05:58.669Z,1013.2
2018-02-16T05:06:39.053Z,1013.2
2018-02-16T05:07:19.523Z,1013.23
2018-02-16T05:07:59.862Z,1013.22
2018-02-16T05:08:40.244Z,1013.23
2018-02-16T05:09:20.674Z,1013.25
2018-02-16T05:10:01.049Z,1013.27
2018-02-16T05:10:41.528Z,1013.32
2018-02-16T05:11:21.952Z,1013.32
2018-02-16T05:12:02.394Z,1013.31
2018-02-16T05:12:42.771Z,1013.32
2018-02-16T05:13:23.191Z,1013.36
2018-02-16T05:14:03.534Z,1013.36
2018-02-16T05:14:43.919Z,1013.37
2018-02-16T05:15:24.332Z,1013.33
2018-02-16T05:16:04.734Z,1013.31
2018-02-16T05:16:45.242Z,1013.36
2018-02-16T05:17:25.578Z,1013.37
2018-02-16T05:18:05.916Z,1013.37
2018-02-16T05:18:46.400Z,1013.41
2018-02-16T05:19:26.880Z,1013.37
2018-02-16T05:20:07.272Z,1013.42
2018-02-16T05:20:47.572Z,1013.39
2018-02-16T05:21:27.988Z,1013.39
2018-02-16T05:22:08.436Z,1013.37
2018-02-16T05:22:48.765Z,1013.36
2018-02-16T05:23:29.202Z,1013.37
2018-02-16T05:24:09.606Z,1013.34
2018-02-16T05:24:50.134Z,1013.37
2018-02-16T05:25:30.360Z,1013.32
2018-02-16T05:26:10.792Z,1013.38
2018-02-16T05:26:51.135Z,1013.39
2018-02-16T05:27:31.669Z,1013.38
2018-02-16T05:28:12.026Z,1013.45
2018-02-16T05:28:52.442Z,1013.43
2018-02-16T05:29:32.952Z,1013.44
2018-02-16T05:30:13.389Z,1013.5
2018-02-16T05:30:53.726Z,1013.48
2018-02-16T05:31:34.197Z,1013.48
2018-02-16T05:32:14.619Z,1013.49
2018-02-16T05:32:54.994Z,1013.52
2018-02-16T05:33:35.327Z,1013.52
2018-02-16T05:34:15.757Z,1013.48
2018-02-16T05:34:56.212Z,1013.52
2018-02-16T05:35:36.599Z,1013.5
2018-02-16T05:36:16.964Z,1013.48
2018-02-16T05:36:57.409Z,1013.52
2018-02-16T05:37:37.822Z,1013.47
2018-02-16T05:38:18.629Z,1013.53
2018-02-16T05:38:59.147Z,1013.52
2018-02-16T05:39:39.584Z,1013.53
2018-02-16T05:40:19.980Z,1013.57
2018-02-16T05:41:00.274Z,1013.59
2018-02-16T05:41:40.745Z,1013.61
2018-02-16T05:42:21.263Z,1013.6
2018-02-16T05:43:01.549Z,1013.65
2018-02-16T05:43:41.997Z,1013.64
2018-02-16T05:44:22.333Z,1013.66
2018-02-16T05:45:02.743Z,1013.64
2018-02-16T05:45:43.176Z,1013.65
2018-02-16T05:46:23.555Z,1013.67
2018-02-16T05:47:04.005Z,1013.66
2018-02-16T05:47:44.328Z,1013.7
2018-02-16T05:48:24.798Z,1013.69
2018-02-16T05:49:05.179Z,1013.65
2018-02-16T05:49:45.576Z,1013.72
2018-02-16T05:50:25.964Z,1013.71
2018-02-16T05:51:06.368Z,1013.7
2018-02-16T05:51:46.839Z,1013.69
2018-02-16T05:52:27.159Z,1013.7
2018-02-16T05:53:07.646Z,1013.71
2018-02-16T05:53:48.294Z,1013.74
2018-02-16T05:54:28.660Z,1013.7
2018-02-16T05:55:09.065Z,1013.71
2018-02-16T05:55:49.490Z,1013.76
2018-02-16T05:56:29.892Z,1013.79
2018-02-16T05:57:10.292Z,1013.79
2018-02-16T05:57:50.667Z,1013.78
2018-02-16T05:58:31.124Z,1013.83
2018-02-16T05:59:11.535Z,1013.83
2018-02-16T05:59:51.900Z,1013.85
2018-02-16T06:00:32.309Z,1013.84
2018-02-16T06:01:13.026Z,1013.85
2018-02-16T06:01:53.298Z,1013.87
2018-02-16T06:02:33.714Z,1013.85
2018-02-16T06:03:14.149Z,1013.84
2018-02-16T06:03:54.561Z,1013.82
2018-02-16T06:04:35.036Z,1013.83
2018-02-16T06:05:15.437Z,1013.84
2018-02-16T06:05:55.810Z,1013.84
2018-02-16T06:06:36.250Z,1013.84
2018-02-16T06:07:16.681Z,1013.85
2018-02-16T06:07:57.286Z,1013.84
2018-02-16T06:08:37.937Z,1013.83
2018-02-16T06:09:18.389Z,1013.83
2018-02-16T06:09:58.904Z,1013.85
2018-02-16T06:10:39.498Z,1013.81
2018-02-16T06:11:21.680Z,1013.82
2018-02-16T06:12:02.084Z,1013.8
2018-02-16T06:12:43.304Z,1013.83
2018-02-16T06:13:24.804Z,1013.8
2018-02-16T06:14:06.655Z,1013.82
2018-02-16T06:14:49.735Z,1013.8
2018-02-16T06:15:29.917Z,1013.84
2018-02-16T06:16:10.148Z,1013.86
2018-02-16T06:16:50.592Z,1013.89
2018-02-16T06:17:31.167Z,1013.91
2018-02-16T06:18:11.564Z,1013.92
2018-02-16T06:18:51.941Z,1013.94
2018-02-16T06:19:32.927Z,1013.94
2018-02-16T06:20:13.757Z,1013.97
2018-02-16T06:20:54.387Z,1013.97
2018-02-16T06:21:34.721Z,1014
2018-02-16T06:22:15.431Z,1014
2018-02-16T06:22:55.861Z,1014.04
2018-02-16T06:23:36.202Z,1014.04
2018-02-16T06:24:16.836Z,1014.02
2018-02-16T06:24:58.554Z,1014.05
2018-02-16T06:25:39.475Z,1014.05
2018-02-16T06:26:19.864Z,1014.06
2018-02-16T06:27:00.274Z,1014.1
2018-02-16T06:27:40.715Z,1014.04
2018-02-16T06:28:21.106Z,1014.08
2018-02-16T06:29:01.673Z,1014.09
2018-02-16T06:29:42.176Z,1014.12
2018-02-16T06:32:10.046Z,1014.07
2018-02-16T06:33:05.882Z,1014.07
2018-02-16T06:33:59.376Z,1014.08
2018-02-16T06:34:57.334Z,1014.04
2018-02-16T06:35:55.203Z,1014.07
2018-02-16T06:36:55.131Z,1014.09
2018-02-16T06:37:49.782Z,1014.1
2018-02-16T06:38:47.384Z,1014.15
2018-02-16T06:39:46.860Z,1014.13
2018-02-16T06:40:43.090Z,1014.16
2018-02-16T06:41:40.995Z,1014.13
2018-02-16T06:42:40.439Z,1014.12
2018-02-16T06:43:35.935Z,1014.09
2018-02-16T06:44:28.827Z,1014.1
2018-02-16T06:45:27.117Z,1014.11
2018-02-16T06:46:30.238Z,1014.18
2018-02-16T06:47:33.447Z,1014.18
2018-02-16T06:48:28.293Z,1014.17
2018-02-16T06:49:20.473Z,1014.2
2018-02-16T06:50:16.531Z,1014.17
2018-02-16T06:51:09.973Z,1014.2
2018-02-16T06:51:57.536Z,1014.19
2018-02-16T06:52:38.178Z,1014.19
2018-02-16T06:53:19.076Z,1014.22
2018-02-16T06:53:59.556Z,1014.18
2018-02-16T06:54:39.912Z,1014.24
2018-02-16T06:55:20.321Z,1014.21
2018-02-16T06:56:00.794Z,1014.23
2018-02-16T06:56:41.361Z,1014.28
2018-02-16T06:57:21.988Z,1014.25
2018-02-16T06:58:02.657Z,1014.27
2018-02-16T06:58:43.592Z,1014.32
2018-02-16T06:59:24.061Z,1014.32
2018-02-16T07:00:04.429Z,1014.34
2018-02-16T07:00:45.047Z,1014.34
2018-02-16T07:01:25.632Z,1014.37
2018-02-16T07:02:06.149Z,1014.35
2018-02-16T07:02:46.708Z,1014.4
2018-02-16T07:03:28.352Z,1014.36
2018-02-16T07:04:08.750Z,1014.43
2018-02-16T07:04:49.386Z,1014.42
2018-02-16T07:05:30.174Z,1014.47
2018-02-16T07:06:10.997Z,1014.44
2018-02-16T07:06:51.473Z,1014.45
2018-02-16T07:07:32.465Z,1014.44
2018-02-16T07:08:13.005Z,1014.4
2018-02-16T07:08:53.475Z,1014.44
2018-02-16T07:09:33.947Z,1014.45
2018-02-16T07:10:14.469Z,1014.44
2018-02-16T07:10:54.963Z,1014.48
2018-02-16T07:11:35.352Z,1014.45
2018-02-16T07:12:15.935Z,1014.47
2018-02-16T07:12:56.452Z,1014.49
2018-02-16T07:13:37.163Z,1014.45
2018-02-16T07:14:32.545Z,1014.46
2018-02-16T07:18:15.133Z,1014.51
2018-02-16T07:29:36.639Z,1014.76
2018-02-16T07:30:33.331Z,1014.79
2018-02-16T07:33:37.999Z,1014.86
2018-02-16T07:34:34.841Z,1014.88
2018-02-16T07:35:42.481Z,1014.92
2018-02-16T07:36:39.905Z,1014.92
2018-02-16T07:37:40.054Z,1014.9
2018-02-16T07:38:33.049Z,1014.98
2018-02-16T07:39:27.576Z,1015.02
2018-02-16T07:40:22.322Z,1015.03
2018-02-16T07:41:16.399Z,1014.98
2018-02-16T07:42:13.982Z,1015.01
2018-02-16T07:43:10.771Z,1015
2018-02-16T07:44:11.452Z,1015.02
2018-02-16T07:45:11.857Z,1015.06
2018-02-16T07:46:06.424Z,1015.08
2018-02-16T07:46:59.509Z,1015.07
2018-02-16T07:48:07.622Z,1015.1
2018-02-16T07:49:14.943Z,1015.11
2018-02-16T07:50:17.024Z,1015.09
2018-02-16T07:51:13.710Z,1015.13
2018-02-16T07:52:09.358Z,1015.14
2018-02-16T07:53:07.568Z,1015.17
2018-02-16T07:54:07.878Z,1015.2
2018-02-16T07:55:10.559Z,1015.2
2018-02-16T08:00:07.087Z,1015.27
2018-02-16T08:01:05.166Z,1015.31
2018-02-16T08:11:18.757Z,1015.4
2018-02-16T08:12:14.606Z,1015.43
2018-02-16T08:13:08.619Z,1015.42
2018-02-16T08:14:08.819Z,1015.46
2018-02-16T08:15:08.615Z,1015.47
2018-02-16T08:16:02.237Z,1015.49
2018-02-16T08:17:10.700Z,1015.5
2018-02-16T08:19:09.785Z,1015.55
2018-02-16T08:20:07.096Z,1015.58
2018-02-16T08:21:04.529Z,1015.6
2018-02-16T08:22:10.302Z,1015.58
2018-02-16T08:23:05.804Z,1015.65
2018-02-16T08:24:03.318Z,1015.69
2018-02-16T08:24:56.738Z,1015.7
2018-02-16T08:25:51.330Z,1015.69
2018-02-16T08:37:53.432Z,1015.76
2018-02-16T08:39:52.835Z,1015.9
2018-02-16T08:40:46.143Z,1015.91
2018-02-16T08:41:43.093Z,1015.9
2018-02-16T08:48:30.882Z,1016.04
2018-02-16T08:49:39.297Z,1016.06
2018-02-16T08:50:51.910Z,1016.07
2018-02-16T09:02:09.078Z,1016.31
2018-02-16T09:02:48.303Z,1016.32
2018-02-16T09:03:30.575Z,1016.36
2018-02-16T09:04:11.406Z,1016.34
2018-02-16T09:04:52.360Z,1016.38
2018-02-16T09:05:33.593Z,1016.35
2018-02-16T09:06:14.123Z,1016.37
2018-02-16T09:06:55.265Z,1016.39
2018-02-16T09:07:38.663Z,1016.37
2018-02-16T09:08:18.779Z,1016.37
2018-02-16T09:08:59.403Z,1016.31
2018-02-16T09:09:39.784Z,1016.36
2018-02-16T09:10:20.514Z,1016.35
2018-02-16T09:11:01.139Z,1016.41
2018-02-16T09:11:41.805Z,1016.36
2018-02-16T09:12:23.608Z,1016.41
2018-02-16T09:13:06.236Z,1016.46
2018-02-16T09:13:48.611Z,1016.51
2018-02-16T09:14:29.480Z,1016.45
2018-02-16T09:15:10.480Z,1016.43
2018-02-16T09:15:51.183Z,1016.45
2018-02-16T09:16:31.823Z,1016.42
2018-02-16T09:17:13.913Z,1016.4
2018-02-16T09:17:54.135Z,1016.41
2018-02-16T09:18:34.887Z,1016.41
2018-02-16T09:19:15.746Z,1016.41
2018-02-16T09:19:56.795Z,1016.39
2018-02-16T09:20:38.096Z,1016.37
2018-02-16T09:21:18.583Z,1016.37
2018-02-16T09:21:59.265Z,1016.38
2018-02-16T09:22:39.580Z,1016.36
2018-02-16T09:23:20.283Z,1016.37
2018-02-16T09:24:00.688Z,1016.37
2018-02-16T09:24:41.376Z,1016.36
2018-02-16T09:25:23.190Z,1016.38
2018-02-16T09:26:03.532Z,1016.36
2018-02-16T09:26:44.463Z,1016.38
2018-02-16T09:27:25.045Z,1016.42
2018-02-16T09:28:06.232Z,1016.44
2018-02-16T09:28:46.625Z,1016.47
2018-02-16T09:29:27.221Z,1016.48
2018-02-16T09:30:07.752Z,1016.48
2018-02-16T09:30:48.228Z,1016.51
2018-02-16T09:31:28.826Z,1016.53
2018-02-16T09:32:09.756Z,1016.51
2018-02-16T09:32:51.888Z,1016.53
2018-02-16T09:33:33.436Z,1016.59
2018-02-16T09:34:14.060Z,1016.6
2018-02-16T09:34:54.907Z,1016.59
2018-02-16T09:35:36.122Z,1016.58
2018-02-16T09:36:16.527Z,1016.51
2018-02-16T09:37:00.621Z,1016.56
2018-02-16T09:37:42.533Z,1016.59
2018-02-16T09:38:23.661Z,1016.57
2018-02-16T09:39:04.550Z,1016.59
2018-02-16T09:39:45.774Z,1016.66
2018-02-16T09:40:31.114Z,1016.69
2018-02-16T09:41:14.458Z,1016.69
2018-02-16T09:41:55.443Z,1016.66
2018-02-16T09:42:36.394Z,1016.67
2018-02-16T09:43:17.415Z,1016.71
2018-02-16T09:43:58.175Z,1016.72
2018-02-16T09:44:38.706Z,1016.74
2018-02-16T09:45:19.628Z,1016.72
2018-02-16T09:46:00.636Z,1016.74
2018-02-16T09:46:42.184Z,1016.74
2018-02-16T09:47:23.402Z,1016.78
2018-02-16T09:48:03.746Z,1016.73
2018-02-16T09:48:44.654Z,1016.74
2018-02-16T09:49:25.779Z,1016.73
2018-02-16T09:50:09.290Z,1016.75
2018-02-16T09:50:49.655Z,1016.74
2018-02-16T09:51:30.253Z,1016.72
2018-02-16T09:52:10.715Z,1016.72
2018-02-16T09:52:51.246Z,1016.78
2018-02-16T09:53:32.701Z,1016.71
2018-02-16T09:54:13.126Z,1016.75
2018-02-16T09:54:53.615Z,1016.78
2018-02-16T09:55:35.070Z,1016.81
2018-02-16T09:56:16.269Z,1016.79
2018-02-16T09:56:56.562Z,1016.75
2018-02-16T09:57:37.249Z,1016.76
2018-02-16T09:58:18.154Z,1016.76
2018-02-16T09:58:59.059Z,1016.83
2018-02-16T09:59:39.567Z,1016.82
2018-02-16T10:00:19.868Z,1016.82
2018-02-16T10:01:00.436Z,1016.87
2018-02-16T10:01:41.042Z,1016.89
2018-02-16T10:02:22.104Z,1016.87
2018-02-16T10:03:03.574Z,1016.89
2018-02-16T10:03:44.014Z,1016.9
2018-02-16T10:04:27.516Z,1016.9
2018-02-16T10:05:08.340Z,1016.98
2018-02-16T10:45:36.411Z,1017.02
2018-02-16T10:48:04.222Z,1017.02
2018-02-16T10:48:45.132Z,1017
2018-02-16T10:49:26.406Z,1016.95
2018-02-16T10:50:07.090Z,1017
2018-02-16T10:50:48.933Z,1017
2018-02-16T10:51:31.762Z,1017.04
2018-02-16T10:53:32.713Z,1017.04
2018-02-16T10:54:13.214Z,1017.04
2018-02-16T10:54:54.821Z,1017.08
2018-02-16T10:55:37.070Z,1017.1
2018-02-16T10:56:17.971Z,1017.05
2018-02-16T10:56:59.578Z,1017.05
2018-02-16T10:57:42.971Z,1017.03
2018-02-16T10:58:24.603Z,1017
2018-02-16T10:59:04.508Z,1017.03
2018-02-16T10:59:45.446Z,1017.07